sensor_id;sensor_type;location;lat;lon;timestamp;P1;durP1;ratioP1;P2;durP2;ratioP2
4325;SDS011;58429;49.826;10.880;2023-04-24T00:00:20;5.3;;;1.5;;
4325;SDS011;58429;49.826;10.880;2023-04-24T00:01:20;5.3;;;1.5;;
4325;SDS011;58429;49.826;10.880;2023-04-24T00:02:20;6.3;;;1.7;;
4325;SDS011;58429;49.826;10.880;2023-04-24T00:03:20;6.3;;;1.7;;
4325;SDS011;58429;49.826;10.880;2023-04-24T00:04:20;6.3;;;1.7;;
4325;SDS011;58429;49.826;10.880;2023-04-24T00:05:20;4.9;;;1.5;;
4325;SDS011;58429;49.826;10.880;2023-04-24T00:06:20;4.9;;;1.5;;
4325;SDS011;58429;49.826;10.880;2023-04-24T00:07:20;4.9;;;1.5;;
4325;SDS011;58429;49.826;10.880;2023-04-24T00:08:20;5.8;;;1.7;;
4325;SDS011;58429;49.826;10.880;2023-04-24T00:09:20;5.8;;;1.7;;
4325;SDS011;58429;49.826;10.880;2023-04-24T00:10:20;5.8;;;1.7;;
4325;SDS011;58429;49.826;10.880;2023-04-24T00:11:20;5.7;;;1.6;;
4325;SDS011;58429;49.826;10.880;2023-04-24T00:12:20;5.7;;;1.6;;
4325;SDS011;58429;49.826;10.880;2023-04-24T00:13:20;5.7;;;1.6;;
4325;SDS011;58429;49.826;10.880;2023-04-24T00:14:20;6.6;;;1.7;;
4325;SDS011;58429;49.826;10.880;2023-04-24T00:15:20;6.6;;;1.7;;
4325;SDS011;58429;49.826;10.880;2023-04-24T00:16:20;6.6;;;1.7;;
4325;SDS011;58429;49.826;10.880;2023-04-24T00:17:20;5;;;1.5;;
4325;SDS011;58429;49.826;10.880;2023-04-24T00:18:20;5;;;1.5;;
4325;SDS011;58429;49.826;10.880;2023-04-24T00:19:20;5;;;1.5;;
4325;SDS011;58429;49.826;10.880;2023-04-24T00:20:20;5.6;;;1.5;;
4325;SDS011;58429;49.826;10.880;2023-04-24T00:21:20;5.6;;;1.5;;
4325;SDS011;58429;49.826;10.880;2023-04-24T00:22:20;5.6;;;1.5;;
4325;SDS011;58429;49.826;10.880;2023-04-24T00:23:20;4.6;;;1.3;;
4325;SDS011;58429;49.826;10.880;2023-04-24T00:24:20;4.6;;;1.3;;
4325;SDS011;58429;49.826;10.880;2023-04-24T00:25:20;4.6;;;1.3;;
4325;SDS011;58429;49.826;10.880;2023-04-24T00:26:20;5.7;;;1.4;;
4325;SDS011;58429;49.826;10.880;2023-04-24T00:27:20;5.7;;;1.4;;
4325;SDS011;58429;49.826;10.880;2023-04-24T00:28:20;5.7;;;1.4;;
4325;SDS011;58429;49.826;10.880;2023-04-24T00:29:20;5.7;;;1.8;;
4325;SDS011;58429;49.826;10.880;2023-04-24T00:30:20;5.7;;;1.8;;
4325;SDS011;58429;49.826;10.880;2023-04-24T00:31:20;5.7;;;1.8;;
4325;SDS011;58429;49.826;10.880;2023-04-24T00:32:20;4.6;;;1.3;;
4325;SDS011;58429;49.826;10.880;2023-04-24T00:33:20;4.6;;;1.3;;
4325;SDS011;58429;49.826;10.880;2023-04-24T00:34:20;4.6;;;1.3;;
4325;SDS011;58429;49.826;10.880;2023-04-24T00:35:20;6.5;;;1.7;;
4325;SDS011;58429;49.826;10.880;2023-04-24T00:36:20;6.5;;;1.7;;
4325;SDS011;58429;49.826;10.880;2023-04-24T00:37:20;6.5;;;1.7;;
4325;SDS011;58429;49.826;10.880;2023-04-24T00:38:20;5.4;;;1.6;;
4325;SDS011;58429;49.826;10.880;2023-04-24T00:39:20;5.4;;;1.6;;
4325;SDS011;58429;49.826;10.880;2023-04-24T00:40:20;5.4;;;1.6;;
4325;SDS011;58429;49.826;10.880;2023-04-24T00:41:20;6;;;1.7;;
4325;SDS011;58429;49.826;10.880;2023-04-24T00:42:20;6;;;1.7;;
4325;SDS011;58429;49.826;10.880;2023-04-24T00:43:20;6;;;1.7;;
4325;SDS011;58429;49.826;10.880;2023-04-24T00:44:20;4.9;;;1.6;;
4325;SDS011;58429;49.826;10.880;2023-04-24T00:45:20;4.9;;;1.6;;
4325;SDS011;58429;49.826;10.880;2023-04-24T00:46:21;4.9;;;1.6;;
4325;SDS011;58429;49.826;10.880;2023-04-24T00:47:20;4.7;;;1.5;;
4325;SDS011;58429;49.826;10.880;2023-04-24T00:48:20;4.7;;;1.5;;
4325;SDS011;58429;49.826;10.880;2023-04-24T00:49:21;4.7;;;1.5;;
4325;SDS011;58429;49.826;10.880;2023-04-24T00:50:20;5.1;;;1.5;;
4325;SDS011;58429;49.826;10.880;2023-04-24T00:51:20;5.1;;;1.5;;
4325;SDS011;58429;49.826;10.880;2023-04-24T00:52:20;5.1;;;1.5;;
4325;SDS011;58429;49.826;10.880;2023-04-24T00:53:20;5.8;;;1.7;;
4325;SDS011;58429;49.826;10.880;2023-04-24T00:54:20;5.8;;;1.7;;
4325;SDS011;58429;49.826;10.880;2023-04-24T00:55:20;5.8;;;1.7;;
4325;SDS011;58429;49.826;10.880;2023-04-24T00:56:20;5.2;;;1.6;;
4325;SDS011;58429;49.826;10.880;2023-04-24T00:57:20;5.2;;;1.6;;
4325;SDS011;58429;49.826;10.880;2023-04-24T00:58:20;5.2;;;1.6;;
4325;SDS011;58429;49.826;10.880;2023-04-24T00:59:20;4.9;;;1.4;;
4325;SDS011;58429;49.826;10.880;2023-04-24T01:00:20;4.9;;;1.4;;
4325;SDS011;58429;49.826;10.880;2023-04-24T01:01:20;4.9;;;1.4;;
4325;SDS011;58429;49.826;10.880;2023-04-24T01:02:21;4.9;;;1.4;;
4325;SDS011;58429;49.826;10.880;2023-04-24T01:03:20;5.7;;;1.4;;
4325;SDS011;58429;49.826;10.880;2023-04-24T01:04:20;5.7;;;1.4;;
4325;SDS011;58429;49.826;10.880;2023-04-24T01:05:20;5.7;;;1.4;;
4325;SDS011;58429;49.826;10.880;2023-04-24T01:06:20;5.8;;;1.5;;
4325;SDS011;58429;49.826;10.880;2023-04-24T01:07:20;5.8;;;1.5;;
4325;SDS011;58429;49.826;10.880;2023-04-24T01:08:20;5.8;;;1.5;;
4325;SDS011;58429;49.826;10.880;2023-04-24T01:09:20;4.8;;;1.4;;
4325;SDS011;58429;49.826;10.880;2023-04-24T01:10:20;4.8;;;1.4;;
4325;SDS011;58429;49.826;10.880;2023-04-24T01:11:20;4.8;;;1.4;;
4325;SDS011;58429;49.826;10.880;2023-04-24T01:12:20;6.7;;;1.6;;
4325;SDS011;58429;49.826;10.880;2023-04-24T01:13:20;6.7;;;1.6;;
4325;SDS011;58429;49.826;10.880;2023-04-24T01:14:20;6.7;;;1.6;;
4325;SDS011;58429;49.826;10.880;2023-04-24T01:15:20;5.8;;;1.6;;
4325;SDS011;58429;49.826;10.880;2023-04-24T01:16:20;5.8;;;1.6;;
4325;SDS011;58429;49.826;10.880;2023-04-24T01:17:20;5.8;;;1.6;;
4325;SDS011;58429;49.826;10.880;2023-04-24T01:18:20;5.4;;;1.6;;
4325;SDS011;58429;49.826;10.880;2023-04-24T01:19:20;5.4;;;1.6;;
4325;SDS011;58429;49.826;10.880;2023-04-24T01:20:20;5.4;;;1.6;;
4325;SDS011;58429;49.826;10.880;2023-04-24T01:21:20;5.3;;;1.6;;
4325;SDS011;58429;49.826;10.880;2023-04-24T01:22:20;5.3;;;1.6;;
4325;SDS011;58429;49.826;10.880;2023-04-24T01:23:20;5.3;;;1.6;;
4325;SDS011;58429;49.826;10.880;2023-04-24T01:24:20;5.5;;;1.7;;
4325;SDS011;58429;49.826;10.880;2023-04-24T01:25:20;5.5;;;1.7;;
4325;SDS011;58429;49.826;10.880;2023-04-24T01:26:20;5.5;;;1.7;;
4325;SDS011;58429;49.826;10.880;2023-04-24T01:27:20;6;;;1.5;;
4325;SDS011;58429;49.826;10.880;2023-04-24T01:28:21;6;;;1.5;;
4325;SDS011;58429;49.826;10.880;2023-04-24T01:29:20;6;;;1.5;;
4325;SDS011;58429;49.826;10.880;2023-04-24T01:30:20;5.3;;;1.5;;
4325;SDS011;58429;49.826;10.880;2023-04-24T01:31:20;5.3;;;1.5;;
4325;SDS011;58429;49.826;10.880;2023-04-24T01:32:20;5.3;;;1.5;;
4325;SDS011;58429;49.826;10.880;2023-04-24T01:33:20;5.9;;;1.7;;
4325;SDS011;58429;49.826;10.880;2023-04-24T01:34:20;5.9;;;1.7;;
4325;SDS011;58429;49.826;10.880;2023-04-24T01:35:20;5.9;;;1.7;;
4325;SDS011;58429;49.826;10.880;2023-04-24T01:36:20;4.9;;;1.5;;
4325;SDS011;58429;49.826;10.880;2023-04-24T01:37:20;4.9;;;1.5;;
4325;SDS011;58429;49.826;10.880;2023-04-24T01:38:20;4.9;;;1.5;;
4325;SDS011;58429;49.826;10.880;2023-04-24T01:39:20;5.9;;;1.5;;
4325;SDS011;58429;49.826;10.880;2023-04-24T01:40:20;5.9;;;1.5;;
4325;SDS011;58429;49.826;10.880;2023-04-24T01:41:20;5.9;;;1.5;;
4325;SDS011;58429;49.826;10.880;2023-04-24T01:42:21;4.3;;;1.3;;
4325;SDS011;58429;49.826;10.880;2023-04-24T01:43:20;4.3;;;1.3;;
4325;SDS011;58429;49.826;10.880;2023-04-24T01:44:20;4.3;;;1.3;;
4325;SDS011;58429;49.826;10.880;2023-04-24T01:45:20;5.8;;;1.4;;
4325;SDS011;58429;49.826;10.880;2023-04-24T01:46:20;5.8;;;1.4;;
4325;SDS011;58429;49.826;10.880;2023-04-24T01:47:20;5.8;;;1.4;;
4325;SDS011;58429;49.826;10.880;2023-04-24T01:48:20;5.6;;;1.6;;
4325;SDS011;58429;49.826;10.880;2023-04-24T01:49:20;5.6;;;1.6;;
4325;SDS011;58429;49.826;10.880;2023-04-24T01:50:20;5.6;;;1.6;;
4325;SDS011;58429;49.826;10.880;2023-04-24T01:51:20;5.2;;;1.4;;
4325;SDS011;58429;49.826;10.880;2023-04-24T01:52:20;5.2;;;1.4;;
4325;SDS011;58429;49.826;10.880;2023-04-24T01:53:20;5.2;;;1.4;;
4325;SDS011;58429;49.826;10.880;2023-04-24T01:54:20;4.9;;;1.5;;
4325;SDS011;58429;49.826;10.880;2023-04-24T01:55:20;4.9;;;1.5;;
4325;SDS011;58429;49.826;10.880;2023-04-24T01:56:21;4.9;;;1.5;;
4325;SDS011;58429;49.826;10.880;2023-04-24T01:57:20;5;;;1.7;;
4325;SDS011;58429;49.826;10.880;2023-04-24T01:58:20;5;;;1.7;;
4325;SDS011;58429;49.826;10.880;2023-04-24T01:59:20;5;;;1.7;;
4325;SDS011;58429;49.826;10.880;2023-04-24T02:00:20;5.8;;;1.6;;
4325;SDS011;58429;49.826;10.880;2023-04-24T02:01:20;5.8;;;1.6;;
4325;SDS011;58429;49.826;10.880;2023-04-24T02:02:20;5.8;;;1.6;;
4325;SDS011;58429;49.826;10.880;2023-04-24T02:03:20;5.7;;;1.5;;
4325;SDS011;58429;49.826;10.880;2023-04-24T02:04:20;5.7;;;1.5;;
4325;SDS011;58429;49.826;10.880;2023-04-24T02:05:20;5.7;;;1.5;;
4325;SDS011;58429;49.826;10.880;2023-04-24T02:06:20;5.3;;;1.6;;
4325;SDS011;58429;49.826;10.880;2023-04-24T02:07:20;5.3;;;1.6;;
4325;SDS011;58429;49.826;10.880;2023-04-24T02:08:20;5.3;;;1.6;;
4325;SDS011;58429;49.826;10.880;2023-04-24T02:09:20;5.4;;;1.7;;
4325;SDS011;58429;49.826;10.880;2023-04-24T02:10:20;5.4;;;1.7;;
4325;SDS011;58429;49.826;10.880;2023-04-24T02:11:20;5.4;;;1.7;;
4325;SDS011;58429;49.826;10.880;2023-04-24T02:12:20;6.5;;;1.6;;
4325;SDS011;58429;49.826;10.880;2023-04-24T02:13:20;6.5;;;1.6;;
4325;SDS011;58429;49.826;10.880;2023-04-24T02:14:20;6.5;;;1.6;;
4325;SDS011;58429;49.826;10.880;2023-04-24T02:15:20;7;;;2;;
4325;SDS011;58429;49.826;10.880;2023-04-24T02:16:20;7;;;2;;
4325;SDS011;58429;49.826;10.880;2023-04-24T02:17:20;7;;;2;;
4325;SDS011;58429;49.826;10.880;2023-04-24T02:18:20;6.4;;;1.7;;
4325;SDS011;58429;49.826;10.880;2023-04-24T02:19:20;6.4;;;1.7;;
4325;SDS011;58429;49.826;10.880;2023-04-24T02:20:20;6.4;;;1.7;;
4325;SDS011;58429;49.826;10.880;2023-04-24T02:21:20;7.5;;;1.9;;
4325;SDS011;58429;49.826;10.880;2023-04-24T02:22:20;7.5;;;1.9;;
4325;SDS011;58429;49.826;10.880;2023-04-24T02:23:20;7.5;;;1.9;;
4325;SDS011;58429;49.826;10.880;2023-04-24T02:24:20;6.5;;;1.9;;
4325;SDS011;58429;49.826;10.880;2023-04-24T02:25:20;6.5;;;1.9;;
4325;SDS011;58429;49.826;10.880;2023-04-24T02:26:20;6.5;;;1.9;;
4325;SDS011;58429;49.826;10.880;2023-04-24T02:27:20;6.7;;;2.4;;
4325;SDS011;58429;49.826;10.880;2023-04-24T02:28:20;6.7;;;2.4;;
4325;SDS011;58429;49.826;10.880;2023-04-24T02:29:20;6.7;;;2.4;;
4325;SDS011;58429;49.826;10.880;2023-04-24T02:30:20;7.9;;;2.8;;
4325;SDS011;58429;49.826;10.880;2023-04-24T02:31:20;7.9;;;2.8;;
4325;SDS011;58429;49.826;10.880;2023-04-24T02:32:20;7.9;;;2.8;;
4325;SDS011;58429;49.826;10.880;2023-04-24T02:33:20;5.6;;;1.6;;
4325;SDS011;58429;49.826;10.880;2023-04-24T02:34:20;5.6;;;1.6;;
4325;SDS011;58429;49.826;10.880;2023-04-24T02:35:20;5.6;;;1.6;;
4325;SDS011;58429;49.826;10.880;2023-04-24T02:36:20;5.9;;;1.8;;
4325;SDS011;58429;49.826;10.880;2023-04-24T02:37:20;5.9;;;1.8;;
4325;SDS011;58429;49.826;10.880;2023-04-24T02:38:20;5.9;;;1.8;;
4325;SDS011;58429;49.826;10.880;2023-04-24T02:39:20;5.3;;;1.5;;
4325;SDS011;58429;49.826;10.880;2023-04-24T02:40:20;5.3;;;1.5;;
4325;SDS011;58429;49.826;10.880;2023-04-24T02:41:20;5.3;;;1.5;;
4325;SDS011;58429;49.826;10.880;2023-04-24T02:42:20;6;;;1.6;;
4325;SDS011;58429;49.826;10.880;2023-04-24T02:43:20;6;;;1.6;;
4325;SDS011;58429;49.826;10.880;2023-04-24T02:44:20;6;;;1.6;;
4325;SDS011;58429;49.826;10.880;2023-04-24T02:45:20;4.7;;;1.5;;
4325;SDS011;58429;49.826;10.880;2023-04-24T02:46:20;4.7;;;1.5;;
4325;SDS011;58429;49.826;10.880;2023-04-24T02:47:20;4.7;;;1.5;;
4325;SDS011;58429;49.826;10.880;2023-04-24T02:48:20;7.2;;;1.7;;
4325;SDS011;58429;49.826;10.880;2023-04-24T02:49:20;7.2;;;1.7;;
4325;SDS011;58429;49.826;10.880;2023-04-24T02:50:20;7.2;;;1.7;;
4325;SDS011;58429;49.826;10.880;2023-04-24T02:51:20;6.5;;;1.5;;
4325;SDS011;58429;49.826;10.880;2023-04-24T02:52:20;6.5;;;1.5;;
4325;SDS011;58429;49.826;10.880;2023-04-24T02:53:20;6.5;;;1.5;;
4325;SDS011;58429;49.826;10.880;2023-04-24T02:54:20;6.5;;;1.5;;
4325;SDS011;58429;49.826;10.880;2023-04-24T02:55:20;6.1;;;1.7;;
4325;SDS011;58429;49.826;10.880;2023-04-24T02:56:20;6.1;;;1.7;;
4325;SDS011;58429;49.826;10.880;2023-04-24T02:57:20;6.1;;;1.7;;
4325;SDS011;58429;49.826;10.880;2023-04-24T02:58:20;6;;;1.6;;
4325;SDS011;58429;49.826;10.880;2023-04-24T02:59:20;6;;;1.6;;
4325;SDS011;58429;49.826;10.880;2023-04-24T03:00:20;6;;;1.6;;
4325;SDS011;58429;49.826;10.880;2023-04-24T03:01:20;5.2;;;1.4;;
4325;SDS011;58429;49.826;10.880;2023-04-24T03:02:20;5.2;;;1.4;;
4325;SDS011;58429;49.826;10.880;2023-04-24T03:03:20;5.2;;;1.4;;
4325;SDS011;58429;49.826;10.880;2023-04-24T03:04:20;4.4;;;1.2;;
4325;SDS011;58429;49.826;10.880;2023-04-24T03:05:20;4.4;;;1.2;;
4325;SDS011;58429;49.826;10.880;2023-04-24T03:06:20;4.4;;;1.2;;
4325;SDS011;58429;49.826;10.880;2023-04-24T03:07:20;4.5;;;1.2;;
4325;SDS011;58429;49.826;10.880;2023-04-24T03:08:20;4.5;;;1.2;;
4325;SDS011;58429;49.826;10.880;2023-04-24T03:09:20;4.5;;;1.2;;
4325;SDS011;58429;49.826;10.880;2023-04-24T03:10:20;5.2;;;1.4;;
4325;SDS011;58429;49.826;10.880;2023-04-24T03:11:20;5.2;;;1.4;;
4325;SDS011;58429;49.826;10.880;2023-04-24T03:12:20;5.2;;;1.4;;
4325;SDS011;58429;49.826;10.880;2023-04-24T03:13:20;4.7;;;1.3;;
4325;SDS011;58429;49.826;10.880;2023-04-24T03:14:20;4.7;;;1.3;;
4325;SDS011;58429;49.826;10.880;2023-04-24T03:15:20;4.7;;;1.3;;
4325;SDS011;58429;49.826;10.880;2023-04-24T03:16:20;3.9;;;1.1;;
4325;SDS011;58429;49.826;10.880;2023-04-24T03:17:20;3.9;;;1.1;;
4325;SDS011;58429;49.826;10.880;2023-04-24T03:18:20;3.9;;;1.1;;
4325;SDS011;58429;49.826;10.880;2023-04-24T03:19:20;5.5;;;1.2;;
4325;SDS011;58429;49.826;10.880;2023-04-24T03:20:20;5.5;;;1.2;;
4325;SDS011;58429;49.826;10.880;2023-04-24T03:21:20;5.5;;;1.2;;
4325;SDS011;58429;49.826;10.880;2023-04-24T03:22:20;4;;;1;;
4325;SDS011;58429;49.826;10.880;2023-04-24T03:23:20;4;;;1;;
4325;SDS011;58429;49.826;10.880;2023-04-24T03:24:20;4;;;1;;
4325;SDS011;58429;49.826;10.880;2023-04-24T03:25:20;5.4;;;1.3;;
4325;SDS011;58429;49.826;10.880;2023-04-24T03:26:20;5.4;;;1.3;;
4325;SDS011;58429;49.826;10.880;2023-04-24T03:27:20;5.4;;;1.3;;
4325;SDS011;58429;49.826;10.880;2023-04-24T03:28:20;5.8;;;1.2;;
4325;SDS011;58429;49.826;10.880;2023-04-24T03:29:21;5.8;;;1.2;;
4325;SDS011;58429;49.826;10.880;2023-04-24T03:30:20;5.8;;;1.2;;
4325;SDS011;58429;49.826;10.880;2023-04-24T03:31:20;4.7;;;1.2;;
4325;SDS011;58429;49.826;10.880;2023-04-24T03:32:20;4.7;;;1.2;;
4325;SDS011;58429;49.826;10.880;2023-04-24T03:33:20;4.7;;;1.2;;
4325;SDS011;58429;49.826;10.880;2023-04-24T03:34:20;4.6;;;1.1;;
4325;SDS011;58429;49.826;10.880;2023-04-24T03:35:20;4.6;;;1.1;;
4325;SDS011;58429;49.826;10.880;2023-04-24T03:36:20;4.6;;;1.1;;
4325;SDS011;58429;49.826;10.880;2023-04-24T03:37:20;4.8;;;1.3;;
4325;SDS011;58429;49.826;10.880;2023-04-24T03:38:20;4.8;;;1.3;;
4325;SDS011;58429;49.826;10.880;2023-04-24T03:39:20;4.8;;;1.3;;
4325;SDS011;58429;49.826;10.880;2023-04-24T03:40:20;4.1;;;1.1;;
4325;SDS011;58429;49.826;10.880;2023-04-24T03:41:20;4.1;;;1.1;;
4325;SDS011;58429;49.826;10.880;2023-04-24T03:42:20;4.1;;;1.1;;
4325;SDS011;58429;49.826;10.880;2023-04-24T03:43:20;5.2;;;1.3;;
4325;SDS011;58429;49.826;10.880;2023-04-24T03:44:20;5.2;;;1.3;;
4325;SDS011;58429;49.826;10.880;2023-04-24T03:45:21;5.2;;;1.3;;
4325;SDS011;58429;49.826;10.880;2023-04-24T03:46:20;4.5;;;1.3;;
4325;SDS011;58429;49.826;10.880;2023-04-24T03:47:20;4.5;;;1.3;;
4325;SDS011;58429;49.826;10.880;2023-04-24T03:48:20;4.5;;;1.3;;
4325;SDS011;58429;49.826;10.880;2023-04-24T03:49:20;5.5;;;1.3;;
4325;SDS011;58429;49.826;10.880;2023-04-24T03:50:20;5.5;;;1.3;;
4325;SDS011;58429;49.826;10.880;2023-04-24T03:51:20;5.5;;;1.3;;
4325;SDS011;58429;49.826;10.880;2023-04-24T03:52:21;4.4;;;1.3;;
4325;SDS011;58429;49.826;10.880;2023-04-24T03:53:21;4.4;;;1.3;;
4325;SDS011;58429;49.826;10.880;2023-04-24T03:54:20;4.4;;;1.3;;
4325;SDS011;58429;49.826;10.880;2023-04-24T03:55:20;4.3;;;1.1;;
4325;SDS011;58429;49.826;10.880;2023-04-24T03:56:20;4.3;;;1.1;;
4325;SDS011;58429;49.826;10.880;2023-04-24T03:57:20;4.3;;;1.1;;
4325;SDS011;58429;49.826;10.880;2023-04-24T03:58:20;4.3;;;1.1;;
4325;SDS011;58429;49.826;10.880;2023-04-24T03:59:20;4.3;;;1.1;;
4325;SDS011;58429;49.826;10.880;2023-04-24T04:00:20;4.3;;;1.1;;
4325;SDS011;58429;49.826;10.880;2023-04-24T04:01:21;4.9;;;1.4;;
4325;SDS011;58429;49.826;10.880;2023-04-24T04:02:20;4.9;;;1.4;;
4325;SDS011;58429;49.826;10.880;2023-04-24T04:03:20;4.9;;;1.4;;
4325;SDS011;58429;49.826;10.880;2023-04-24T04:04:20;5;;;1.4;;
4325;SDS011;58429;49.826;10.880;2023-04-24T04:05:20;5;;;1.4;;
4325;SDS011;58429;49.826;10.880;2023-04-24T04:06:20;5;;;1.4;;
4325;SDS011;58429;49.826;10.880;2023-04-24T04:07:20;7.5;;;1.8;;
4325;SDS011;58429;49.826;10.880;2023-04-24T04:08:20;7.5;;;1.8;;
4325;SDS011;58429;49.826;10.880;2023-04-24T04:09:20;7.5;;;1.8;;
4325;SDS011;58429;49.826;10.880;2023-04-24T04:10:20;8.8;;;2.7;;
4325;SDS011;58429;49.826;10.880;2023-04-24T04:11:20;8.8;;;2.7;;
4325;SDS011;58429;49.826;10.880;2023-04-24T04:12:20;8.8;;;2.7;;
4325;SDS011;58429;49.826;10.880;2023-04-24T04:13:20;10.5;;;3.6;;
4325;SDS011;58429;49.826;10.880;2023-04-24T04:14:20;10.5;;;3.6;;
4325;SDS011;58429;49.826;10.880;2023-04-24T04:15:20;10.5;;;3.6;;
4325;SDS011;58429;49.826;10.880;2023-04-24T04:16:20;9.8;;;4;;
4325;SDS011;58429;49.826;10.880;2023-04-24T04:17:21;9.8;;;4;;
4325;SDS011;58429;49.826;10.880;2023-04-24T04:18:20;9.8;;;4;;
4325;SDS011;58429;49.826;10.880;2023-04-24T04:19:20;9.5;;;3.6;;
4325;SDS011;58429;49.826;10.880;2023-04-24T04:20:20;9.5;;;3.6;;
4325;SDS011;58429;49.826;10.880;2023-04-24T04:21:20;9.5;;;3.6;;
4325;SDS011;58429;49.826;10.880;2023-04-24T04:22:20;6;;;1.8;;
4325;SDS011;58429;49.826;10.880;2023-04-24T04:23:20;6;;;1.8;;
4325;SDS011;58429;49.826;10.880;2023-04-24T04:24:20;6;;;1.8;;
4325;SDS011;58429;49.826;10.880;2023-04-24T04:25:20;5.3;;;1.6;;
4325;SDS011;58429;49.826;10.880;2023-04-24T04:26:20;5.3;;;1.6;;
4325;SDS011;58429;49.826;10.880;2023-04-24T04:27:20;5.3;;;1.6;;
4325;SDS011;58429;49.826;10.880;2023-04-24T04:28:20;5.4;;;1.5;;
4325;SDS011;58429;49.826;10.880;2023-04-24T04:29:21;5.4;;;1.5;;
4325;SDS011;58429;49.826;10.880;2023-04-24T04:30:20;5.4;;;1.5;;
4325;SDS011;58429;49.826;10.880;2023-04-24T04:31:20;6.7;;;2.1;;
4325;SDS011;58429;49.826;10.880;2023-04-24T04:32:20;6.7;;;2.1;;
4325;SDS011;58429;49.826;10.880;2023-04-24T04:33:20;6.7;;;2.1;;
4325;SDS011;58429;49.826;10.880;2023-04-24T04:34:20;5.7;;;1.7;;
4325;SDS011;58429;49.826;10.880;2023-04-24T04:35:20;5.7;;;1.7;;
4325;SDS011;58429;49.826;10.880;2023-04-24T04:36:20;5.7;;;1.7;;
4325;SDS011;58429;49.826;10.880;2023-04-24T04:37:20;6.7;;;1.8;;
4325;SDS011;58429;49.826;10.880;2023-04-24T04:38:20;6.7;;;1.8;;
4325;SDS011;58429;49.826;10.880;2023-04-24T04:39:20;6.7;;;1.8;;
4325;SDS011;58429;49.826;10.880;2023-04-24T04:40:20;6.4;;;1.6;;
4325;SDS011;58429;49.826;10.880;2023-04-24T04:41:20;6.4;;;1.6;;
4325;SDS011;58429;49.826;10.880;2023-04-24T04:42:20;6.4;;;1.6;;
4325;SDS011;58429;49.826;10.880;2023-04-24T04:43:20;5;;;1.4;;
4325;SDS011;58429;49.826;10.880;2023-04-24T04:44:20;5;;;1.4;;
4325;SDS011;58429;49.826;10.880;2023-04-24T04:45:20;5;;;1.4;;
4325;SDS011;58429;49.826;10.880;2023-04-24T04:46:21;6.2;;;1.7;;
4325;SDS011;58429;49.826;10.880;2023-04-24T04:47:21;6.2;;;1.7;;
4325;SDS011;58429;49.826;10.880;2023-04-24T04:48:21;6.2;;;1.7;;
4325;SDS011;58429;49.826;10.880;2023-04-24T04:49:20;6.2;;;1.7;;
4325;SDS011;58429;49.826;10.880;2023-04-24T04:50:20;6.1;;;1.9;;
4325;SDS011;58429;49.826;10.880;2023-04-24T04:51:21;6.1;;;1.9;;
4325;SDS011;58429;49.826;10.880;2023-04-24T04:52:20;6.1;;;1.9;;
4325;SDS011;58429;49.826;10.880;2023-04-24T04:53:20;6.4;;;2.3;;
4325;SDS011;58429;49.826;10.880;2023-04-24T04:54:21;6.4;;;2.3;;
4325;SDS011;58429;49.826;10.880;2023-04-24T04:55:20;6.4;;;2.3;;
4325;SDS011;58429;49.826;10.880;2023-04-24T04:56:20;5.7;;;2;;
4325;SDS011;58429;49.826;10.880;2023-04-24T04:57:20;5.7;;;2;;
4325;SDS011;58429;49.826;10.880;2023-04-24T04:58:20;5.7;;;2;;
4325;SDS011;58429;49.826;10.880;2023-04-24T04:59:20;5.6;;;1.7;;
4325;SDS011;58429;49.826;10.880;2023-04-24T05:00:21;5.6;;;1.7;;
4325;SDS011;58429;49.826;10.880;2023-04-24T05:01:20;5.6;;;1.7;;
4325;SDS011;58429;49.826;10.880;2023-04-24T05:02:21;6.3;;;1.8;;
4325;SDS011;58429;49.826;10.880;2023-04-24T05:03:21;6.3;;;1.8;;
4325;SDS011;58429;49.826;10.880;2023-04-24T05:04:21;6.3;;;1.8;;
4325;SDS011;58429;49.826;10.880;2023-04-24T05:05:21;5.5;;;1.7;;
4325;SDS011;58429;49.826;10.880;2023-04-24T05:06:20;5.5;;;1.7;;
4325;SDS011;58429;49.826;10.880;2023-04-24T05:07:20;5.5;;;1.7;;
4325;SDS011;58429;49.826;10.880;2023-04-24T05:08:20;6.2;;;1.6;;
4325;SDS011;58429;49.826;10.880;2023-04-24T05:09:20;6.2;;;1.6;;
4325;SDS011;58429;49.826;10.880;2023-04-24T05:10:21;6.2;;;1.6;;
4325;SDS011;58429;49.826;10.880;2023-04-24T05:11:20;6.2;;;1.8;;
4325;SDS011;58429;49.826;10.880;2023-04-24T05:12:20;6.2;;;1.8;;
4325;SDS011;58429;49.826;10.880;2023-04-24T05:13:21;6.2;;;1.8;;
4325;SDS011;58429;49.826;10.880;2023-04-24T05:14:20;5.5;;;1.5;;
4325;SDS011;58429;49.826;10.880;2023-04-24T05:15:21;5.5;;;1.5;;
4325;SDS011;58429;49.826;10.880;2023-04-24T05:16:21;5.5;;;1.5;;
4325;SDS011;58429;49.826;10.880;2023-04-24T05:17:20;7.2;;;1.6;;
4325;SDS011;58429;49.826;10.880;2023-04-24T05:18:21;7.2;;;1.6;;
4325;SDS011;58429;49.826;10.880;2023-04-24T05:19:20;7.2;;;1.6;;
4325;SDS011;58429;49.826;10.880;2023-04-24T05:20:21;6;;;2;;
4325;SDS011;58429;49.826;10.880;2023-04-24T05:21:20;6;;;2;;
4325;SDS011;58429;49.826;10.880;2023-04-24T05:22:20;6;;;2;;
4325;SDS011;58429;49.826;10.880;2023-04-24T05:23:20;5.7;;;1.6;;
4325;SDS011;58429;49.826;10.880;2023-04-24T05:24:20;5.7;;;1.6;;
4325;SDS011;58429;49.826;10.880;2023-04-24T05:25:20;5.7;;;1.6;;
4325;SDS011;58429;49.826;10.880;2023-04-24T05:26:20;5.1;;;1.6;;
4325;SDS011;58429;49.826;10.880;2023-04-24T05:27:20;5.1;;;1.6;;
4325;SDS011;58429;49.826;10.880;2023-04-24T05:28:20;5.1;;;1.6;;
4325;SDS011;58429;49.826;10.880;2023-04-24T05:29:21;5.8;;;1.8;;
4325;SDS011;58429;49.826;10.880;2023-04-24T05:30:21;5.8;;;1.8;;
4325;SDS011;58429;49.826;10.880;2023-04-24T05:31:21;5.8;;;1.8;;
4325;SDS011;58429;49.826;10.880;2023-04-24T05:32:20;6.2;;;1.8;;
4325;SDS011;58429;49.826;10.880;2023-04-24T05:33:21;6.2;;;1.8;;
4325;SDS011;58429;49.826;10.880;2023-04-24T05:34:21;6.2;;;1.8;;
4325;SDS011;58429;49.826;10.880;2023-04-24T05:35:21;5.9;;;1.4;;
4325;SDS011;58429;49.826;10.880;2023-04-24T05:36:20;5.9;;;1.4;;
4325;SDS011;58429;49.826;10.880;2023-04-24T05:37:21;5.9;;;1.4;;
4325;SDS011;58429;49.826;10.880;2023-04-24T05:38:20;5.5;;;1.3;;
4325;SDS011;58429;49.826;10.880;2023-04-24T05:39:20;5.5;;;1.3;;
4325;SDS011;58429;49.826;10.880;2023-04-24T05:40:21;5.5;;;1.3;;
4325;SDS011;58429;49.826;10.880;2023-04-24T05:41:20;5;;;1.2;;
4325;SDS011;58429;49.826;10.880;2023-04-24T05:42:20;5;;;1.2;;
4325;SDS011;58429;49.826;10.880;2023-04-24T05:43:21;5;;;1.2;;
4325;SDS011;58429;49.826;10.880;2023-04-24T05:44:20;5.9;;;1.5;;
4325;SDS011;58429;49.826;10.880;2023-04-24T05:45:21;5.9;;;1.5;;
4325;SDS011;58429;49.826;10.880;2023-04-24T05:46:20;5.9;;;1.5;;
4325;SDS011;58429;49.826;10.880;2023-04-24T05:47:21;5.2;;;1.4;;
4325;SDS011;58429;49.826;10.880;2023-04-24T05:48:20;5.2;;;1.4;;
4325;SDS011;58429;49.826;10.880;2023-04-24T05:49:20;5.2;;;1.4;;
4325;SDS011;58429;49.826;10.880;2023-04-24T05:50:20;5.8;;;1.2;;
4325;SDS011;58429;49.826;10.880;2023-04-24T05:51:21;5.8;;;1.2;;
4325;SDS011;58429;49.826;10.880;2023-04-24T05:52:20;5.8;;;1.2;;
4325;SDS011;58429;49.826;10.880;2023-04-24T05:53:21;4.3;;;1.2;;
4325;SDS011;58429;49.826;10.880;2023-04-24T05:54:20;4.3;;;1.2;;
4325;SDS011;58429;49.826;10.880;2023-04-24T05:55:20;4.3;;;1.2;;
4325;SDS011;58429;49.826;10.880;2023-04-24T05:56:20;5.3;;;1.4;;
4325;SDS011;58429;49.826;10.880;2023-04-24T05:57:20;5.3;;;1.4;;
4325;SDS011;58429;49.826;10.880;2023-04-24T05:58:20;5.3;;;1.4;;
4325;SDS011;58429;49.826;10.880;2023-04-24T05:59:20;4.6;;;1.1;;
4325;SDS011;58429;49.826;10.880;2023-04-24T06:00:20;4.6;;;1.1;;
4325;SDS011;58429;49.826;10.880;2023-04-24T06:01:20;4.6;;;1.1;;
4325;SDS011;58429;49.826;10.880;2023-04-24T06:02:21;4;;;1.1;;
4325;SDS011;58429;49.826;10.880;2023-04-24T06:03:20;4;;;1.1;;
4325;SDS011;58429;49.826;10.880;2023-04-24T06:04:20;4;;;1.1;;
4325;SDS011;58429;49.826;10.880;2023-04-24T06:05:20;5.4;;;1.3;;
4325;SDS011;58429;49.826;10.880;2023-04-24T06:06:20;5.4;;;1.3;;
4325;SDS011;58429;49.826;10.880;2023-04-24T06:07:21;5.4;;;1.3;;
4325;SDS011;58429;49.826;10.880;2023-04-24T06:08:20;5;;;1.6;;
4325;SDS011;58429;49.826;10.880;2023-04-24T06:09:21;5;;;1.6;;
4325;SDS011;58429;49.826;10.880;2023-04-24T06:10:20;5;;;1.6;;
4325;SDS011;58429;49.826;10.880;2023-04-24T06:11:20;5.4;;;1.5;;
4325;SDS011;58429;49.826;10.880;2023-04-24T06:12:20;5.4;;;1.5;;
4325;SDS011;58429;49.826;10.880;2023-04-24T06:13:21;5.4;;;1.5;;
4325;SDS011;58429;49.826;10.880;2023-04-24T06:14:20;4.9;;;1.4;;